Time;durP1;ratioP1;P1;durP2;ratioP2;P2;SDS_P1;SDS_P2;PMS_P1;PMS_P2;Temp;Humidity;BMP_temperature;BMP_pressure;BME280_temperature;BME280_humidity;BME280_pressure;Samples;Min_cycle;Max_cycle;Signal;HPM_P1;HPM_P2
2022/04/11 00:00:07;;;;;;;4.23;3.83;;;7.90;32.80;;;;;;10358322;28;20230;-72
2022/04/11 00:05:10;;;;;;;4.20;3.70;;;7.80;32.50;;;;;;10349531;28;20254;-72
2022/04/11 00:10:13;;;;;;;4.90;3.90;;;7.80;32.50;;;;;;10359416;28;20687;-72
2022/04/11 00:15:17;;;;;;;4.00;3.37;;;7.70;32.50;;;;;;10349506;28;20226;-71
2022/04/11 00:20:21;;;;;;;3.83;3.43;;;7.70;32.60;;;;;;10347777;28;20309;-72
2022/04/11 00:25:24;;;;;;;4.10;3.70;;;7.50;32.50;;;;;;10357507;28;20235;-72
2022/04/11 00:30:28;;;;;;;3.93;3.63;;;7.50;32.50;;;;;;10349128;28;20230;-72
2022/04/11 00:35:32;;;;;;;5.27;4.10;;;7.50;32.80;;;;;;10348219;28;20237;-71
2022/04/11 00:40:35;;;;;;;4.93;4.40;;;7.40;32.70;;;;;;10358682;28;20232;-72
2022/04/11 00:45:39;;;;;;;5.03;4.03;;;7.40;32.70;;;;;;10354424;28;20226;-72
2022/04/11 00:50:43;;;;;;;8.27;4.90;;;7.30;32.60;;;;;;10355171;28;20214;-72
2022/04/11 00:55:47;;;;;;;5.20;4.40;;;7.20;32.50;;;;;;10362573;28;20317;-72
2022/04/11 01:00:52;;;;;;;4.07;3.70;;;7.00;32.40;;;;;;10359431;28;20234;-72
2022/04/11 01:05:55;;;;;;;3.50;3.20;;;7.00;33.60;;;;;;10361036;28;20230;-72
2022/04/11 01:10:58;;;;;;;3.70;3.37;;;6.90;32.90;;;;;;10363395;28;20229;-71
2022/04/11 01:16:05;;;;;;;3.80;3.50;;;6.90;33.70;;;;;;10361099;28;20675;-71
2022/04/11 01:21:09;;;;;;;3.70;3.40;;;6.90;33.20;;;;;;10363385;28;20238;-71
2022/04/11 01:26:15;;;;;;;4.50;3.63;;;6.90;33.10;;;;;;10357665;28;20240;-72
2022/04/11 01:31:19;;;;;;;3.67;3.27;;;7.00;33.30;;;;;;10354344;28;20241;-72
2022/04/11 01:36:22;;;;;;;3.47;3.20;;;7.00;32.90;;;;;;10363487;28;20241;-72
2022/04/11 01:41:26;;;;;;;4.17;3.77;;;7.00;32.70;;;;;;10357624;28;20246;-72
2022/04/11 01:46:29;;;;;;;3.20;3.00;;;6.90;32.60;;;;;;10351803;28;20241;-71
2022/04/11 01:51:33;;;;;;;3.60;3.30;;;6.80;32.50;;;;;;10353172;28;20226;-71
2022/04/11 01:56:38;;;;;;;5.20;3.97;;;6.80;32.80;;;;;;10351451;28;20235;-71
2022/04/11 02:01:41;;;;;;;4.83;3.83;;;6.80;33.00;;;;;;10355759;28;20237;-72
2022/04/11 02:06:44;;;;;;;3.73;3.43;;;6.70;32.80;;;;;;10357350;28;20273;-72
2022/04/11 02:11:49;;;;;;;4.37;3.53;;;6.70;32.70;;;;;;10359179;28;20227;-71
2022/04/11 02:16:52;;;;;;;3.70;3.40;;;6.70;32.90;;;;;;10356911;28;20237;-72
2022/04/11 02:21:55;;;;;;;3.57;3.27;;;6.70;32.90;;;;;;10355136;28;20324;-72
2022/04/11 02:27:00;;;;;;;3.23;2.93;;;6.70;32.80;;;;;;10348197;28;20227;-72
2022/04/11 02:32:03;;;;;;;3.43;3.13;;;6.70;32.90;;;;;;10359790;28;20749;-72
2022/04/11 02:37:07;;;;;;;3.77;3.47;;;6.70;32.80;;;;;;10350039;28;20693;-72
2022/04/11 02:42:11;;;;;;;4.20;3.80;;;6.70;32.90;;;;;;10357099;28;20613;-72
2022/04/11 02:47:14;;;;;;;4.10;3.47;;;6.70;32.90;;;;;;10359591;28;20221;-71
2022/04/11 02:52:18;;;;;;;3.43;3.17;;;6.60;32.80;;;;;;10358641;28;20250;-72
2022/04/11 02:57:22;;;;;;;3.77;3.47;;;6.60;32.90;;;;;;10350345;28;20233;-71
2022/04/11 03:02:25;;;;;;;4.53;4.13;;;6.60;33.10;;;;;;10354479;28;20233;-72
2022/04/11 03:07:29;;;;;;;4.50;4.10;;;6.60;33.10;;;;;;10351620;28;20238;-72
2022/04/11 03:12:34;;;;;;;4.97;4.17;;;6.50;33.00;;;;;;10349462;28;20237;-72
2022/04/11 03:17:37;;;;;;;4.00;3.70;;;6.50;33.00;;;;;;10353224;28;20235;-71
2022/04/11 03:22:40;;;;;;;4.17;3.60;;;6.40;32.80;;;;;;10355571;28;20245;-71
2022/04/11 03:27:45;;;;;;;3.70;3.40;;;6.20;33.00;;;;;;10351466;28;20238;-72
2022/04/11 03:32:48;;;;;;;4.03;3.63;;;6.20;33.40;;;;;;10354645;28;20742;-72
2022/04/11 03:37:51;;;;;;;3.53;3.23;;;6.20;33.40;;;;;;10350669;28;20234;-72
2022/04/11 03:42:56;;;;;;;3.23;2.93;;;6.20;33.40;;;;;;10349699;28;20238;-72
2022/04/11 03:47:59;;;;;;;4.33;4.03;;;6.20;33.50;;;;;;10349675;28;20242;-72
2022/04/11 03:53:02;;;;;;;4.20;3.87;;;6.20;33.40;;;;;;10352591;28;20673;-71
2022/04/11 03:58:07;;;;;;;4.23;3.90;;;6.10;33.20;;;;;;10353220;28;20226;-71
2022/04/11 04:03:11;;;;;;;4.23;3.90;;;6.00;33.40;;;;;;10348277;28;20315;-72
2022/04/11 04:08:17;;;;;;;3.60;3.30;;;5.90;33.40;;;;;;10356906;28;20657;-72
2022/04/11 04:13:21;;;;;;;4.07;3.67;;;5.80;33.50;;;;;;10343705;28;20230;-72
2022/04/11 04:18:25;;;;;;;3.90;3.60;;;5.80;33.90;;;;;;10352506;28;20235;-72
2022/04/11 04:23:28;;;;;;;3.30;3.00;;;5.80;33.80;;;;;;10358110;28;20238;-72
2022/04/11 04:28:32;;;;;;;3.80;3.50;;;5.90;33.90;;;;;;10360406;28;20234;-72
2022/04/11 04:33:35;;;;;;;4.03;3.60;;;5.80;34.00;;;;;;10358918;28;20685;-72
2022/04/11 04:38:40;;;;;;;3.90;3.60;;;5.90;33.90;;;;;;10356579;28;20226;-72
2022/04/11 04:43:45;;;;;;;5.07;4.67;;;6.00;33.90;;;;;;10356310;28;20238;-72
2022/04/11 04:48:48;;;;;;;5.20;4.80;;;5.90;34.00;;;;;;10364599;28;20244;-72
2022/04/11 04:53:51;;;;;;;7.80;5.50;;;6.00;33.90;;;;;;10353746;28;20238;-71
2022/04/11 04:58:56;;;;;;;9.10;7.73;;;5.90;33.80;;;;;;10361454;28;20226;-72
2022/04/11 05:03:59;;;;;;;8.60;7.60;;;6.00;34.10;;;;;;10367934;28;20214;-72
2022/04/11 05:09:02;;;;;;;10.17;8.40;;;6.00;34.00;;;;;;10358990;28;20237;-72
2022/04/11 05:14:08;;;;;;;9.70;8.10;;;6.00;34.00;;;;;;10360898;28;20237;-72
2022/04/11 05:19:11;;;;;;;9.13;7.13;;;6.00;34.30;;;;;;10358583;28;20234;-72
2022/04/11 05:24:14;;;;;;;8.00;7.27;;;6.10;34.10;;;;;;10359654;28;20234;-72
2022/04/11 05:29:18;;;;;;;7.47;6.77;;;6.10;34.20;;;;;;10359561;28;20230;-72
2022/04/11 05:34:21;;;;;;;8.03;7.33;;;6.10;34.50;;;;;;10356167;28;20239;-72
2022/04/11 05:39:25;;;;;;;8.63;7.83;;;6.10;34.40;;;;;;10357255;28;20234;-72
2022/04/11 05:44:29;;;;;;;10.27;8.83;;;6.10;34.40;;;;;;10356291;28;20922;-72
2022/04/11 05:49:32;;;;;;;8.80;7.90;;;6.10;34.70;;;;;;10351394;28;20227;-72
2022/04/11 05:54:38;;;;;;;7.70;7.00;;;6.20;34.60;;;;;;10364123;28;20929;-72
2022/04/11 05:59:43;;;;;;;8.17;7.47;;;6.20;34.80;;;;;;10361303;28;20214;-72
2022/04/11 06:04:46;;;;;;;7.93;7.13;;;6.20;34.90;;;;;;10351726;28;20741;-72
2022/04/11 06:09:49;;;;;;;9.87;9.07;;;6.20;34.80;;;;;;10364588;28;20662;-72
2022/04/11 06:14:54;;;;;;;10.93;9.60;;;6.30;35.10;;;;;;10351647;28;20231;-72
2022/04/11 06:20:00;;;;;;;13.83;10.20;;;6.40;35.40;;;;;;10354751;28;20225;-72
2022/04/11 06:25:05;;;;;;;10.40;9.40;;;6.40;35.40;;;;;;10361916;28;20904;-72
2022/04/11 06:30:10;;;;;;;10.57;9.47;;;6.50;35.30;;;;;;10361418;28;20225;-72
2022/04/11 06:35:13;;;;;;;10.83;9.83;;;6.60;35.60;;;;;;10355016;28;20230;-72
2022/04/11 06:40:17;;;;;;;11.77;10.67;;;6.60;35.40;;;;;;10371742;28;20226;-72
2022/04/11 06:45:21;;;;;;;10.50;9.57;;;6.70;35.90;;;;;;10352155;28;20252;-72
2022/04/11 06:50:24;;;;;;;10.20;9.33;;;6.70;35.90;;;;;;10353254;28;20234;-72
2022/04/11 06:55:28;;;;;;;10.10;9.10;;;6.80;35.90;;;;;;10346472;28;20276;-73
2022/04/11 07:00:33;;;;;;;9.77;8.93;;;6.90;36.00;;;;;;10357202;28;20249;-72
2022/04/11 07:05:36;;;;;;;7.77;7.07;;;7.00;36.60;;;;;;10358906;28;20235;-73
2022/04/11 07:10:40;;;;;;;8.07;7.27;;;7.20;36.40;;;;;;10361066;28;20236;-73
2022/04/11 07:15:45;;;;;;;7.73;7.03;;;7.30;36.40;;;;;;10355583;28;20234;-73
2022/04/11 07:20:48;;;;;;;8.00;7.30;;;7.50;36.90;;;;;;10358291;28;20661;-73
2022/04/11 07:25:51;;;;;;;9.43;8.63;;;7.60;36.70;;;;;;10352748;28;20230;-73
2022/04/11 07:30:58;;;;;;;7.97;7.37;;;7.80;36.90;;;;;;10357504;28;20222;-73
2022/04/11 07:36:05;;;;;;;7.73;6.53;;;7.90;37.10;;;;;;10362708;28;20226;-73
2022/04/11 07:41:08;;;;;;;6.67;5.77;;;8.10;36.60;;;;;;10351761;28;20236;-73
2022/04/11 07:46:13;;;;;;;6.23;5.63;;;8.40;36.50;;;;;;10352564;28;20230;-74
2022/04/11 07:51:16;;;;;;;6.20;5.37;;;8.60;36.50;;;;;;10357746;28;20226;-73
2022/04/11 07:56:19;;;;;;;6.03;5.43;;;8.90;36.20;;;;;;10362803;28;20249;-74
2022/04/11 08:01:24;;;;;;;5.17;4.77;;;9.10;36.00;;;;;;10367686;28;20238;-73
2022/04/11 08:06:27;;;;;;;5.77;5.00;;;9.40;35.90;;;;;;10348186;28;20309;-73
2022/04/11 08:11:30;;;;;;;7.00;5.10;;;9.60;35.60;;;;;;10357015;28;20237;-74
2022/04/11 08:16:35;;;;;;;5.70;5.10;;;9.90;35.40;;;;;;10358650;28;20236;-73
2022/04/11 08:21:38;;;;;;;6.80;4.73;;;10.20;34.10;;;;;;10359871;28;20261;-74
2022/04/11 08:26:41;;;;;;;5.30;4.80;;;10.40;34.10;;;;;;10357746;28;20225;-74
2022/04/11 08:31:46;;;;;;;5.03;4.57;;;10.60;33.40;;;;;;10349959;28;20230;-74
2022/04/11 08:36:49;;;;;;;5.47;4.53;;;10.80;33.30;;;;;;10355844;28;20233;-74
2022/04/11 08:41:59;;;;;;;5.13;4.73;;;11.00;33.30;;;;;;10356109;28;20260;-74
2022/04/11 08:47:11;;;;;;;4.77;4.37;;;11.20;33.10;;;;;;10355908;28;20757;-74
2022/04/11 08:52:15;;;;;;;5.47;4.00;;;11.40;32.90;;;;;;10356474;28;20242;-73
2022/04/11 08:57:18;;;;;;;5.00;4.43;;;11.60;32.70;;;;;;10346436;28;20230;-73
2022/04/11 09:02:31;;;;;;;5.10;4.70;;;11.80;32.60;;;;;;10398165;23;20226;-69
2022/04/11 09:07:48;;;;;;;4.70;4.30;;;12.00;31.60;;;;;;10382931;28;20221;-69
2022/04/11 09:12:53;;;;;;;4.73;4.27;;;12.10;30.00;;;;;;10381975;28;20226;-69
2022/04/11 09:18:00;;;;;;;4.77;4.17;;;12.20;31.70;;;;;;10379752;28;20732;-71
2022/04/11 09:23:19;;;;;;;5.47;4.00;;;12.30;32.00;;;;;;10378049;28;20301;-71
2022/04/11 09:28:22;;;;;;;4.80;4.23;;;12.50;30.60;;;;;;10378474;28;20258;-68
2022/04/11 09:33:28;;;;;;;4.53;4.13;;;12.70;31.50;;;;;;10380120;28;20272;-69
2022/04/11 09:38:37;;;;;;;4.17;3.77;;;12.80;31.20;;;;;;10379723;28;20609;-69
2022/04/11 09:43:40;;;;;;;4.27;3.97;;;12.90;30.30;;;;;;10375388;28;20226;-69
2022/04/11 09:48:46;;;;;;;4.47;4.07;;;13.00;30.90;;;;;;10382876;28;20221;-69
2022/04/11 09:53:49;;;;;;;4.47;3.93;;;13.20;30.50;;;;;;10378014;28;20603;-69
2022/04/11 09:58:53;;;;;;;3.60;3.30;;;13.30;30.60;;;;;;10374612;28;20230;-69
2022/04/11 10:03:58;;;;;;;3.97;3.67;;;13.40;30.70;;;;;;10378874;28;20257;-68
2022/04/11 10:09:02;;;;;;;4.43;3.93;;;13.50;30.00;;;;;;10375883;28;20229;-68
2022/04/11 10:14:07;;;;;;;4.37;4.07;;;13.60;30.30;;;;;;10373461;28;20230;-68
2022/04/11 10:19:12;;;;;;;5.00;4.50;;;13.70;29.70;;;;;;10375131;28;20218;-68
2022/04/11 10:24:19;;;;;;;3.80;3.47;;;13.70;28.80;;;;;;10380839;28;20229;-68
2022/04/11 10:29:33;;;;;;;5.40;3.00;;;13.70;29.10;;;;;;10373914;28;20222;-72
2022/04/11 10:34:52;;;;;;;3.33;3.03;;;13.80;26.80;;;;;;10378244;28;20720;-68
2022/04/11 10:40:33;;;;;;;3.60;3.30;;;13.80;28.20;;;;;;10377759;28;20233;-72
2022/04/11 10:45:39;;;;;;;3.77;3.47;;;13.90;28.90;;;;;;10373545;28;20225;-69
2022/04/11 10:50:45;;;;;;;4.17;3.20;;;14.10;28.80;;;;;;10381150;28;20523;-69
2022/04/11 10:56:09;;;;;;;3.30;3.00;;;14.30;29.00;;;;;;10371698;28;20252;-69
2022/04/11 11:01:13;;;;;;;3.27;2.87;;;14.50;28.40;;;;;;10370172;28;20234;-69
2022/04/11 11:06:22;;;;;;;3.83;3.07;;;14.60;28.90;;;;;;10370708;28;20232;-69
2022/04/11 11:11:27;;;;;;;3.50;3.20;;;14.80;27.20;;;;;;10375729;28;20230;-69
2022/04/11 11:16:37;;;;;;;3.43;3.13;;;14.80;28.30;;;;;;10375625;28;20222;-69
2022/04/11 11:22:05;;;;;;;3.00;2.80;;;14.80;27.10;;;;;;10374386;28;20812;-69
2022/04/11 11:27:10;;;;;;;3.80;3.50;;;14.90;27.40;;;;;;10372147;28;20284;-69
2022/04/11 11:32:14;;;;;;;4.10;3.70;;;14.90;27.90;;;;;;10374674;28;20234;-69
2022/04/11 11:37:18;;;;;;;4.10;3.70;;;14.90;28.00;;;;;;10375165;28;20234;-69
2022/04/11 11:42:22;;;;;;;3.30;2.97;;;14.90;27.80;;;;;;10378673;28;20246;-72
2022/04/11 11:47:27;;;;;;;3.63;3.27;;;14.90;28.00;;;;;;10375849;28;20234;-72
2022/04/11 11:52:32;;;;;;;5.57;3.30;;;15.00;27.80;;;;;;10377071;28;20611;-69
2022/04/11 11:57:36;;;;;;;3.90;3.50;;;15.10;27.40;;;;;;10380872;28;20713;-69
2022/04/11 12:08:17;;;;;;;3.17;2.93;;;15.20;27.80;;;;;;10377628;28;20284;-69
2022/04/11 12:13:23;;;;;;;3.83;3.47;;;15.30;26.90;;;;;;10376770;28;20221;-69
2022/04/11 12:18:27;;;;;;;3.33;3.13;;;15.50;26.70;;;;;;10375933;28;20236;-69
2022/04/11 12:23:44;;;;;;;3.40;3.20;;;15.60;27.70;;;;;;10374244;28;20237;-69
2022/04/11 12:28:47;;;;;;;3.50;3.20;;;15.70;25.40;;;;;;10377821;28;20232;-68
2022/04/11 12:33:52;;;;;;;3.37;3.07;;;15.80;27.00;;;;;;10373541;28;20225;-68
2022/04/11 12:38:58;;;;;;;4.07;3.60;;;15.80;26.80;;;;;;10377649;28;20226;-68
2022/04/11 12:44:14;;;;;;;3.77;3.30;;;15.70;26.10;;;;;;10384769;28;20225;-68
2022/04/11 12:49:19;;;;;;;3.10;2.90;;;15.70;25.90;;;;;;10380210;28;20752;-68
2022/04/11 12:54:24;;;;;;;3.00;2.70;;;15.80;26.60;;;;;;10381999;28;20241;-68
2022/04/11 12:59:29;;;;;;;3.37;2.90;;;15.90;26.60;;;;;;10380397;28;20707;-72
2022/04/11 13:04:33;;;;;;;3.47;3.17;;;16.00;26.70;;;;;;10378446;28;20233;-69
2022/04/11 13:09:40;;;;;;;3.30;3.00;;;16.00;26.20;;;;;;10380979;28;20596;-69
2022/04/11 13:14:44;;;;;;;3.27;3.07;;;16.00;25.90;;;;;;10380859;28;20234;-72
2022/04/11 13:19:51;;;;;;;3.77;3.20;;;16.10;26.40;;;;;;10377592;28;20225;-72
2022/04/11 13:24:57;;;;;;;3.27;2.97;;;16.10;26.30;;;;;;10378297;28;20233;-70
2022/04/11 13:30:05;;;;;;;3.03;2.83;;;16.20;26.20;;;;;;10381734;28;20280;-69
2022/04/11 13:35:28;;;;;;;3.20;3.00;;;16.30;26.30;;;;;;10378125;28;20706;-69
2022/04/11 13:40:32;;;;;;;3.30;3.00;;;16.40;26.20;;;;;;10382111;28;20234;-69
2022/04/11 13:45:35;;;;;;;3.40;3.10;;;16.50;25.60;;;;;;10378335;28;20230;-69
2022/04/11 13:50:39;;;;;;;3.53;3.23;;;16.50;26.00;;;;;;10381274;28;20234;-72
2022/04/11 13:55:43;;;;;;;3.50;3.20;;;16.50;26.00;;;;;;10377632;28;20244;-70
2022/04/11 14:00:47;;;;;;;3.30;3.00;;;16.40;25.30;;;;;;10379257;28;20737;-68
2022/04/11 14:05:50;;;;;;;2.80;2.57;;;16.40;26.00;;;;;;10379495;28;20226;-68
2022/04/11 14:10:55;;;;;;;3.80;3.47;;;16.50;25.90;;;;;;10380592;28;20242;-68
2022/04/11 14:15:58;;;;;;;3.50;3.20;;;16.50;25.10;;;;;;10380128;28;20253;-68
2022/04/11 14:21:01;;;;;;;3.10;2.90;;;16.60;25.50;;;;;;10379159;28;20321;-68
2022/04/11 14:26:06;;;;;;;3.20;2.90;;;16.60;25.20;;;;;;10375770;28;20766;-68
2022/04/11 14:31:12;;;;;;;3.40;3.10;;;16.70;25.10;;;;;;10377834;28;20300;-69
2022/04/11 14:36:15;;;;;;;3.30;3.00;;;16.60;25.20;;;;;;10380085;28;20436;-68
2022/04/11 14:41:40;;;;;;;2.73;2.53;;;16.70;25.50;;;;;;10378291;28;20260;-69
2022/04/11 14:46:43;;;;;;;2.90;2.53;;;16.80;24.50;;;;;;10375928;28;20628;-69
2022/04/11 14:51:46;;;;;;;3.10;2.80;;;16.70;24.90;;;;;;10380965;28;20261;-68
2022/04/11 14:56:51;;;;;;;3.20;3.00;;;16.70;25.10;;;;;;10377410;28;20309;-69
2022/04/11 15:01:55;;;;;;;2.90;2.47;;;16.70;24.60;;;;;;10376901;28;20929;-69
2022/04/11 15:06:58;;;;;;;3.17;2.87;;;16.70;25.00;;;;;;10374351;28;20234;-72
2022/04/11 15:12:03;;;;;;;3.27;2.97;;;16.70;25.10;;;;;;10375675;28;20305;-72
2022/04/11 15:17:08;;;;;;;3.10;2.80;;;16.80;24.80;;;;;;10387026;28;20226;-71
2022/04/11 15:22:13;;;;;;;3.13;2.30;;;16.90;24.90;;;;;;10377931;28;20316;-72
2022/04/11 15:27:18;;;;;;;2.80;2.60;;;17.00;24.60;;;;;;10378040;28;20231;-68
2022/04/11 15:32:21;;;;;;;3.20;2.80;;;17.00;24.20;;;;;;10377537;28;20249;-69
2022/04/11 15:37:25;;;;;;;3.17;2.87;;;17.00;24.70;;;;;;10374580;28;20234;-72
2022/04/11 15:42:30;;;;;;;3.97;2.63;;;17.00;24.50;;;;;;10377745;28;20230;-72
2022/04/11 15:47:33;;;;;;;3.20;3.00;;;17.00;24.10;;;;;;10380466;28;20222;-72
2022/04/11 15:52:37;;;;;;;3.30;3.00;;;16.90;24.40;;;;;;10377491;28;20234;-72
2022/04/11 15:57:42;;;;;;;4.73;3.43;;;16.90;24.40;;;;;;10370684;28;20278;-69
2022/04/11 16:02:45;;;;;;;3.33;3.07;;;16.90;24.40;;;;;;10371181;28;20442;-69
2022/04/11 16:07:48;;;;;;;4.00;3.60;;;17.00;24.70;;;;;;10374198;28;20239;-70
2022/04/11 16:12:53;;;;;;;3.33;3.03;;;17.00;24.50;;;;;;10374446;28;20230;-69
2022/04/11 16:17:56;;;;;;;4.13;3.73;;;17.10;24.30;;;;;;10373221;28;20225;-72
2022/04/11 16:23:00;;;;;;;4.30;3.83;;;17.20;24.20;;;;;;10374466;28;20222;-72
2022/04/11 16:28:04;;;;;;;4.10;3.70;;;17.20;24.30;;;;;;10369602;28;20619;-68
2022/04/11 16:33:08;;;;;;;4.40;3.40;;;17.20;23.60;;;;;;10377565;28;20226;-68
2022/04/11 16:38:11;;;;;;;3.57;3.33;;;17.20;24.10;;;;;;10372488;28;20239;-68
2022/04/11 16:43:15;;;;;;;4.00;3.40;;;17.10;24.10;;;;;;10367314;28;20241;-68
2022/04/11 16:48:18;;;;;;;4.53;3.97;;;17.00;23.60;;;;;;10372545;28;20237;-68
2022/04/11 16:53:22;;;;;;;4.07;3.70;;;17.00;24.10;;;;;;10373611;28;20241;-68
2022/04/11 16:58:26;;;;;;;4.03;3.63;;;16.90;24.10;;;;;;10369898;28;20996;-68
2022/04/11 17:03:30;;;;;;;5.30;3.70;;;16.90;23.90;;;;;;10376462;28;20602;-68
2022/04/11 17:08:33;;;;;;;4.40;4.10;;;16.90;24.20;;;;;;10373721;28;20231;-68
2022/04/11 17:13:40;;;;;;;4.70;4.40;;;16.80;24.20;;;;;;10372531;28;20234;-68
2022/04/11 17:18:43;;;;;;;4.20;3.90;;;16.80;24.10;;;;;;10374691;28;20214;-68
2022/04/11 17:23:46;;;;;;;7.23;5.70;;;16.80;24.40;;;;;;10376311;28;20230;-68
2022/04/11 17:28:51;;;;;;;5.77;5.17;;;16.70;24.30;;;;;;10379850;28;20593;-68
2022/04/11 17:33:54;;;;;;;5.00;4.33;;;16.70;24.10;;;;;;10380633;28;20230;-68
2022/04/11 17:38:58;;;;;;;5.00;4.60;;;16.60;24.20;;;;;;10382810;28;20587;-69
2022/04/11 17:44:02;;;;;;;5.50;5.00;;;16.60;24.10;;;;;;10382391;28;20233;-68
2022/04/11 17:49:06;;;;;;;6.27;5.67;;;16.50;24.00;;;;;;10379941;28;20234;-69
2022/04/11 17:54:09;;;;;;;7.20;5.93;;;16.50;24.10;;;;;;10377009;28;20229;-68
2022/04/11 17:59:13;;;;;;;5.67;5.07;;;16.50;24.30;;;;;;10380277;28;20233;-68
2022/04/11 18:04:17;;;;;;;5.60;5.10;;;16.40;24.10;;;;;;10378060;28;20271;-68
2022/04/11 18:09:20;;;;;;;4.80;3.90;;;16.40;24.30;;;;;;10380833;28;20335;-69
2022/04/11 18:14:24;;;;;;;3.93;3.53;;;16.30;24.50;;;;;;10383759;28;20230;-69
2022/04/11 18:19:28;;;;;;;3.70;3.10;;;16.20;24.40;;;;;;10378493;28;20226;-69
2022/04/11 18:24:31;;;;;;;3.40;3.10;;;16.20;24.50;;;;;;10379201;28;20242;-68
2022/04/11 18:35:06;;;;;;;3.67;3.37;;;16.00;24.40;;;;;;10333134;28;20222;-71
2022/04/11 18:40:10;;;;;;;4.00;3.70;;;15.80;24.30;;;;;;10378820;28;20225;-68
2022/04/11 18:45:15;;;;;;;3.63;3.33;;;15.70;24.40;;;;;;10374778;28;20240;-68
2022/04/11 18:50:18;;;;;;;3.43;3.13;;;15.60;24.40;;;;;;10379436;28;20232;-68
2022/04/11 18:55:21;;;;;;;2.93;2.73;;;15.50;24.70;;;;;;10374503;28;22570;-70
2022/04/11 19:00:26;;;;;;;3.83;3.37;;;15.40;24.80;;;;;;10378509;28;20230;-70
2022/04/11 19:05:31;;;;;;;3.43;2.90;;;15.30;24.80;;;;;;10379010;28;20225;-69
2022/04/11 19:10:35;;;;;;;3.20;3.00;;;15.20;25.00;;;;;;10376441;28;20222;-69
2022/04/11 19:15:40;;;;;;;3.43;2.83;;;15.10;25.00;;;;;;10382702;28;20230;-69
2022/04/11 19:20:43;;;;;;;3.40;3.10;;;15.00;25.00;;;;;;10377773;28;20226;-70
2022/04/11 19:25:47;;;;;;;2.87;2.67;;;14.90;25.00;;;;;;10372731;28;20245;-69
2022/04/11 19:30:54;;;;;;;3.17;2.93;;;14.80;25.10;;;;;;10375234;28;20237;-69
2022/04/11 19:35:58;;;;;;;4.53;2.90;;;14.70;25.10;;;;;;10378774;28;20226;-69
2022/04/11 19:41:01;;;;;;;3.63;2.70;;;14.60;25.10;;;;;;10376468;28;20826;-69
2022/04/11 19:46:06;;;;;;;5.10;4.23;;;14.50;25.20;;;;;;10372714;28;20226;-68
2022/04/11 19:51:09;;;;;;;6.17;5.53;;;14.40;25.20;;;;;;10379478;28;20222;-69
2022/04/11 19:56:13;;;;;;;8.37;7.10;;;14.30;25.20;;;;;;10373884;28;20650;-72
2022/04/11 20:01:18;;;;;;;7.83;7.03;;;14.20;25.30;;;;;;10377055;28;20230;-69
2022/04/11 20:06:23;;;;;;;6.63;5.97;;;14.10;25.30;;;;;;10371545;28;20293;-69
2022/04/11 20:11:26;;;;;;;4.93;4.53;;;14.00;25.30;;;;;;10374743;28;20253;-69
2022/04/11 20:16:30;;;;;;;5.30;4.80;;;13.80;25.30;;;;;;10370667;28;20237;-68
2022/04/11 20:21:33;;;;;;;5.87;5.37;;;13.70;25.50;;;;;;10378496;28;20481;-68
2022/04/11 20:26:37;;;;;;;7.40;5.47;;;13.50;25.40;;;;;;10375588;28;20234;-69
2022/04/11 20:31:42;;;;;;;10.97;9.87;;;13.40;25.40;;;;;;10375820;28;20717;-72
2022/04/11 20:36:46;;;;;;;9.50;7.70;;;13.20;25.50;;;;;;10373226;28;20241;-72
2022/04/11 20:41:50;;;;;;;7.60;6.80;;;13.00;25.50;;;;;;10380967;28;20255;-72
2022/04/11 20:46:54;;;;;;;6.37;5.77;;;12.90;25.70;;;;;;10374439;28;20230;-72
2022/04/11 20:51:59;;;;;;;6.93;6.23;;;12.80;25.90;;;;;;10373072;28;20233;-72
2022/04/11 20:57:02;;;;;;;6.40;5.73;;;12.60;25.80;;;;;;10372286;28;20637;-70
2022/04/11 21:02:07;;;;;;;6.33;5.73;;;12.60;25.90;;;;;;10383494;28;20238;-69
2022/04/11 21:07:11;;;;;;;4.70;4.30;;;12.50;26.00;;;;;;10383803;28;20341;-68
2022/04/11 21:12:14;;;;;;;6.43;5.27;;;12.40;26.10;;;;;;10378543;28;20226;-69
2022/04/11 21:17:19;;;;;;;5.13;4.67;;;12.40;26.20;;;;;;10383808;28;20233;-69
2022/04/11 21:22:22;;;;;;;4.80;4.40;;;12.30;26.20;;;;;;10384565;28;20289;-69
2022/04/11 21:27:25;;;;;;;6.00;5.50;;;12.30;26.20;;;;;;10379310;28;20238;-68
2022/04/11 21:32:29;;;;;;;5.43;4.93;;;12.20;26.10;;;;;;10384531;28;20222;-68
2022/04/11 21:37:33;;;;;;;6.67;5.20;;;12.20;26.30;;;;;;10383549;28;20218;-68
2022/04/11 21:42:36;;;;;;;5.43;4.73;;;12.10;26.20;;;;;;10382643;28;20622;-72
2022/04/11 21:47:40;;;;;;;5.70;5.13;;;12.00;26.20;;;;;;10383548;28;20233;-69
2022/04/11 21:52:44;;;;;;;5.57;5.00;;;11.90;26.40;;;;;;10381618;28;20596;-69
2022/04/11 21:57:47;;;;;;;5.70;5.17;;;11.80;26.30;;;;;;10379392;28;20608;-68
2022/04/11 22:03:09;;;;;;;5.20;4.80;;;11.60;26.30;;;;;;10379946;28;20240;-68
2022/04/11 22:08:13;;;;;;;4.67;4.27;;;11.50;26.50;;;;;;10379694;28;20301;-72
2022/04/11 22:13:17;;;;;;;4.60;4.07;;;11.40;26.50;;;;;;10378378;28;20234;-68
2022/04/11 22:18:21;;;;;;;3.80;3.50;;;11.30;26.60;;;;;;10380382;28;20643;-68
2022/04/11 22:23:25;;;;;;;4.70;4.30;;;11.10;26.50;;;;;;10381294;28;20790;-72
2022/04/11 22:28:28;;;;;;;4.33;3.93;;;11.10;26.70;;;;;;10375172;28;20245;-72
2022/04/11 22:33:33;;;;;;;4.53;4.13;;;11.10;26.90;;;;;;10375451;28;20232;-70
2022/04/11 22:38:36;;;;;;;4.20;3.77;;;11.00;27.00;;;;;;10378378;28;20597;-69
2022/04/11 22:43:39;;;;;;;4.17;3.77;;;10.90;26.80;;;;;;10377596;28;20226;-69
2022/04/11 22:48:45;;;;;;;4.37;4.03;;;10.90;26.90;;;;;;10375996;28;20222;-69
2022/04/11 22:53:48;;;;;;;4.20;3.80;;;10.80;27.10;;;;;;10378356;28;20245;-69
2022/04/11 22:58:51;;;;;;;4.10;3.80;;;10.70;27.00;;;;;;10373539;28;20236;-69
2022/04/11 23:03:56;;;;;;;4.20;3.80;;;10.70;27.10;;;;;;10377359;28;20233;-69
2022/04/11 23:08:59;;;;;;;4.60;4.20;;;10.60;27.10;;;;;;10377052;28;20687;-69
2022/04/11 23:14:02;;;;;;;4.67;4.27;;;10.60;27.00;;;;;;10377287;28;20720;-69
2022/04/11 23:19:07;;;;;;;4.13;3.67;;;10.40;27.00;;;;;;10377979;28;20234;-68
2022/04/11 23:24:10;;;;;;;3.60;3.30;;;10.40;27.20;;;;;;10377232;28;20240;-68
2022/04/11 23:29:13;;;;;;;4.10;3.53;;;10.30;27.10;;;;;;10370620;28;20235;-69
2022/04/11 23:34:18;;;;;;;3.33;3.13;;;10.30;27.20;;;;;;10372718;28;20252;-69
2022/04/11 23:39:21;;;;;;;3.70;3.40;;;10.20;27.40;;;;;;10377466;28;20709;-70
2022/04/11 23:44:24;;;;;;;4.10;3.10;;;10.20;27.30;;;;;;10376939;28;20246;-69
2022/04/11 23:49:29;;;;;;;3.73;3.43;;;10.20;27.30;;;;;;10375385;28;20242;-70
2022/04/11 23:54:32;;;;;;;4.40;3.67;;;10.10;27.40;;;;;;10374868;28;20226;-70
2022/04/11 23:59:35;;;;;;;3.40;3.10;;;10.00;27.10;;;;;;10337093;28;1154833;-72
